createdAt,value
2019-05-22T00:09:55.137Z,96715.55
2019-05-22T00:20:02.018Z,96731.58
2019-05-22T00:30:10.237Z,96728.63
2019-05-22T00:40:16.996Z,96728.40
2019-05-22T00:50:23.185Z,96710.64
2019-05-22T01:00:34.851Z,96707.70
2019-05-22T01:10:40.451Z,96730.26
2019-05-22T01:20:46.797Z,96745.57
2019-05-22T01:30:58.478Z,96746.29
2019-05-22T01:41:12.970Z,96741.05
2019-05-22T01:51:19.600Z,96738.30
2019-05-22T02:01:28.525Z,96722.92
2019-05-22T02:11:34.103Z,96717.20
2019-05-22T02:21:38.495Z,96720.89
2019-05-22T02:31:44.019Z,96723.16
2019-05-22T02:41:52.101Z,96737.56
2019-05-22T02:51:57.260Z,96741.34
2019-05-22T03:02:04.126Z,96750.38
2019-05-22T03:12:09.233Z,96741.42
2019-05-22T03:22:23.808Z,96751.70
2019-05-22T03:32:28.592Z,96744.17
2019-05-22T03:42:34.452Z,96757.89
2019-05-22T03:52:39.695Z,96760.88
2019-05-22T04:02:47.681Z,96765.74
2019-05-22T04:12:54.247Z,96774.20
2019-05-22T04:22:59.854Z,96788.69
2019-05-22T04:33:05.409Z,96795.53
2019-05-22T04:43:12.901Z,96789.23
2019-05-22T04:53:17.849Z,96800.48
2019-05-22T05:03:22.768Z,96799.00
2019-05-22T05:13:27.450Z,96813.50
2019-05-22T05:23:32.379Z,96813.23
2019-05-22T05:33:42.365Z,96827.77
2019-05-22T05:43:47.757Z,96834.09
2019-05-22T05:54:11.060Z,96835.21
2019-05-22T06:04:33.577Z,96822.48
2019-05-22T06:14:33.182Z,96824.25
2019-05-22T06:24:49.618Z,96837.52
2019-05-22T06:34:54.297Z,96828.27
2019-05-22T06:44:58.747Z,96843.72
2019-05-22T06:55:04.401Z,96852.70
2019-05-22T07:05:10.098Z,96871.44
2019-05-22T07:15:23.759Z,96869.52
2019-05-22T07:25:28.651Z,96889.35
2019-05-22T07:35:49.724Z,96893.73
2019-05-22T07:45:40.385Z,96891.36
2019-05-22T07:55:45.593Z,96908.77
2019-05-22T08:05:52.498Z,96901.73
2019-05-22T08:15:59.243Z,96906.38
2019-05-22T08:26:04.147Z,96911.10
2019-05-22T08:36:09.609Z,96921.44
2019-05-22T08:46:14.656Z,96922.63
2019-05-22T08:56:20.751Z,96940.58
2019-05-22T09:06:25.286Z,96955.77
2019-05-22T09:16:30.040Z,96961.67
2019-05-22T09:26:34.642Z,96970.69
2019-05-22T09:36:39.595Z,96985.21
2019-05-22T09:46:44.585Z,96974.63
2019-05-22T09:56:49.099Z,96974.91
2019-05-22T10:06:53.864Z,96985.63
2019-05-22T10:16:58.503Z,96988.36
2019-05-22T10:27:05.940Z,97025.02
2019-05-22T10:37:10.942Z,97014.27
2019-05-22T10:47:18.652Z,97024.45
2019-05-22T10:57:23.459Z,97050.81
2019-05-22T11:07:29.024Z,97040.05
2019-05-22T11:17:34.533Z,97060.15
2019-05-22T11:27:40.484Z,97079.59
2019-05-22T11:37:45.441Z,97072.98
2019-05-22T11:47:50.672Z,97077.95
2019-05-22T11:57:55.118Z,97074.45
2019-05-22T12:08:00.234Z,97085.53
2019-05-22T12:18:05.186Z,97071.84
2019-05-22T12:28:10.086Z,97091.41
2019-05-22T12:38:15.122Z,97104.66
2019-05-22T12:48:19.990Z,97093.98
2019-05-22T12:58:24.754Z,97116.16
2019-05-22T13:08:31.861Z,97102.52
2019-05-22T13:18:37.783Z,97111.83
2019-05-22T13:28:44.489Z,97108.55
2019-05-22T13:38:49.453Z,97125.65
2019-05-22T13:48:54.186Z,97122.18
2019-05-22T13:58:58.997Z,97120.65
2019-05-22T14:09:03.857Z,97137.27
2019-05-22T14:19:08.765Z,97133.14
2019-05-22T14:29:13.848Z,97142.78
2019-05-22T14:39:19.241Z,97134.79
2019-05-22T14:49:24.164Z,97156.59
2019-05-22T14:59:30.411Z,97158.41
2019-05-22T15:09:35.384Z,97157.41
2019-05-22T15:19:39.972Z,97162.36
2019-05-22T15:29:44.745Z,97154.34
2019-05-22T15:39:50.332Z,97155.61
2019-05-22T15:49:54.905Z,97155.12
2019-05-22T15:59:59.506Z,97163.81
2019-05-22T16:10:06.256Z,97160.95
2019-05-22T16:20:12.450Z,97162.52
2019-05-22T16:30:18.136Z,97151.48
2019-05-22T16:40:24.053Z,97162.94
2019-05-22T16:50:29.039Z,97162.26
2019-05-22T17:00:34.115Z,97172.42
2019-05-22T17:10:40.604Z,97161.89
2019-05-22T17:20:46.392Z,97178.65
2019-05-22T17:30:51.804Z,97182.44
2019-05-22T17:40:56.351Z,97194.80
2019-05-22T17:51:01.732Z,97195.12
2019-05-22T18:01:09.443Z,97183.18
2019-05-22T18:11:15.613Z,97186.97
2019-05-22T18:21:21.544Z,97199.58
2019-05-22T18:31:29.350Z,97211.77
2019-05-22T18:41:34.628Z,97203.51
2019-05-22T18:51:40.968Z,97225.32
2019-05-22T19:01:45.818Z,97233.92
2019-05-22T19:11:51.114Z,97243.14
2019-05-22T19:21:58.385Z,97262.53
2019-05-22T19:32:04.047Z,97268.98
2019-05-22T19:42:09.136Z,97288.95
2019-05-22T19:52:14.925Z,97291.02
2019-05-22T20:02:21.583Z,97282.53
2019-05-22T20:12:26.773Z,97297.81
2019-05-22T20:22:32.045Z,97295.41
2019-05-22T20:32:37.808Z,97305.55
2019-05-22T20:42:42.862Z,97310.14
2019-05-22T20:52:47.813Z,97308.99
2019-05-22T21:02:55.327Z,97322.52
2019-05-22T21:13:01.366Z,97328.97
2019-05-22T21:23:06.432Z,97319.42
2019-05-22T21:33:11.185Z,97303.84
2019-05-22T21:43:17.853Z,97304.30
2019-05-22T21:53:22.327Z,97303.39
2019-05-22T22:03:32.573Z,97333.06
2019-05-22T22:13:37.611Z,97321.04
2019-05-22T22:23:44.585Z,97328.94
2019-05-22T22:33:52.812Z,97327.12
2019-05-22T22:43:59.716Z,97331.01
2019-05-22T22:54:06.618Z,97318.39
2019-05-22T23:04:14.130Z,97325.27
2019-05-22T23:14:20.776Z,97320.22
2019-05-22T23:24:26.198Z,97338.34
2019-05-22T23:34:31.184Z,97332.61
2019-05-22T23:44:36.864Z,97336.50
2019-05-22T23:54:41.884Z,97349.69
